Time;durP1;ratioP1;P1;durP2;ratioP2;P2;SDS_P1;SDS_P2;PMS_P1;PMS_P2;Temp;Humidity;BMP_temperature;BMP_pressure;BME280_temperature;BME280_humidity;BME280_pressure;Samples;Min_cycle;Max_cycle;Signal;HPM_P1;HPM_P2
2023/06/14 00:01:27;;;;;;;8.85;3.67;;;15.70;67.60;;;;;;5046464;28;20048;-65
2023/06/14 00:03:53;;;;;;;12.80;3.92;;;15.60;67.90;;;;;;5046917;28;20518;-64
2023/06/14 00:06:19;;;;;;;8.60;3.92;;;15.60;68.20;;;;;;5061423;28;20036;-65
2023/06/14 00:08:45;;;;;;;11.40;4.97;;;15.50;68.40;;;;;;5045394;28;20047;-66
2023/06/14 00:11:11;;;;;;;9.45;4.30;;;15.50;68.80;;;;;;5065390;28;20081;-63
2023/06/14 00:13:37;;;;;;;11.88;4.72;;;15.40;68.90;;;;;;5066993;28;20059;-65
2023/06/14 00:16:03;;;;;;;10.57;4.47;;;15.40;69.30;;;;;;5086737;28;20639;-63
2023/06/14 00:18:29;;;;;;;11.65;4.60;;;15.40;69.80;;;;;;5069579;28;20051;-65
2023/06/14 00:20:56;;;;;;;12.13;5.45;;;15.30;70.00;;;;;;5069259;28;20054;-65
2023/06/14 00:23:22;;;;;;;11.82;5.78;;;15.30;70.40;;;;;;5069856;28;20035;-64
2023/06/14 00:25:47;;;;;;;11.32;5.88;;;15.20;71.10;;;;;;5069963;28;20071;-65
2023/06/14 00:28:13;;;;;;;13.20;6.00;;;15.20;71.50;;;;;;5066922;28;20123;-65
2023/06/14 00:30:39;;;;;;;13.60;5.57;;;15.20;71.90;;;;;;5067378;28;20629;-66
2023/06/14 00:33:05;;;;;;;9.32;4.70;;;15.10;72.30;;;;;;5066656;28;20123;-64
2023/06/14 00:35:31;;;;;;;10.55;5.38;;;15.10;72.90;;;;;;5065786;28;20515;-67
2023/06/14 00:37:57;;;;;;;15.05;5.55;;;15.10;73.40;;;;;;5064730;28;20130;-67
2023/06/14 00:40:23;;;;;;;11.85;4.28;;;15.00;73.80;;;;;;5072946;28;20467;-66
2023/06/14 00:42:49;;;;;;;10.98;4.13;;;15.00;74.40;;;;;;5066302;28;20044;-66
2023/06/14 00:45:15;;;;;;;9.45;3.90;;;14.90;74.90;;;;;;5050285;28;20047;-65
2023/06/14 00:47:42;;;;;;;10.85;4.18;;;14.90;75.40;;;;;;5066392;28;20029;-67
2023/06/14 00:50:09;;;;;;;8.90;4.00;;;14.80;75.90;;;;;;5050163;28;20098;-67
2023/06/14 00:52:36;;;;;;;7.60;4.50;;;14.80;76.50;;;;;;5064779;28;20846;-64
2023/06/14 00:55:02;;;;;;;9.95;4.43;;;14.70;76.80;;;;;;5066557;28;20079;-65
2023/06/14 00:57:29;;;;;;;9.65;5.30;;;14.70;77.40;;;;;;5048996;28;20041;-67
2023/06/14 00:59:55;;;;;;;11.25;6.78;;;14.60;77.70;;;;;;5049781;28;20060;-63
2023/06/14 01:02:21;;;;;;;15.45;7.68;;;14.60;78.30;;;;;;5066176;28;20040;-64
2023/06/14 01:04:49;;;;;;;15.00;7.63;;;14.60;78.90;;;;;;5065931;28;20317;-63
2023/06/14 01:07:33;;;;;;;13.05;6.57;;;14.50;79.50;;;;;;5063740;28;20471;-64
2023/06/14 01:10:25;;;;;;;11.73;4.65;;;14.50;80.50;;;;;;5056251;28;20036;-65
2023/06/14 01:13:12;;;;;;;8.32;3.60;;;14.50;80.50;;;;;;5068936;28;20595;-71
2023/06/14 01:15:40;;;;;;;10.45;3.17;;;14.50;81.20;;;;;;5069854;28;20903;-65
2023/06/14 01:18:06;;;;;;;7.93;3.05;;;14.40;81.20;;;;;;5067541;28;20078;-66
2023/06/14 01:20:36;;;;;;;8.05;2.60;;;14.40;81.60;;;;;;5068602;28;20534;-65
2023/06/14 01:23:02;;;;;;;8.40;2.95;;;14.40;82.10;;;;;;5068209;28;20107;-63
2023/06/14 01:25:28;;;;;;;6.00;2.25;;;14.30;82.20;;;;;;5054534;28;20070;-65
2023/06/14 01:28:00;;;;;;;7.97;2.33;;;14.30;82.80;;;;;;5064686;28;20043;-66
2023/06/14 01:30:26;;;;;;;7.43;2.30;;;14.30;83.50;;;;;;5065908;28;20467;-66
2023/06/14 01:32:54;;;;;;;7.00;2.40;;;14.20;84.40;;;;;;5049243;28;20051;-63
2023/06/14 01:35:20;;;;;;;6.72;1.92;;;14.20;84.30;;;;;;5050564;28;20123;-62
2023/06/14 01:37:48;;;;;;;8.20;2.22;;;14.20;84.80;;;;;;5067787;28;20513;-65
2023/06/14 01:40:15;;;;;;;6.80;2.15;;;14.20;85.50;;;;;;5070661;28;20538;-63
2023/06/14 01:42:42;;;;;;;5.53;2.00;;;14.10;85.90;;;;;;5048608;28;20051;-68
2023/06/14 01:45:10;;;;;;;6.53;1.92;;;14.10;86.40;;;;;;5048890;28;20086;-64
2023/06/14 01:47:36;;;;;;;5.13;2.13;;;14.00;87.60;;;;;;5048223;28;20491;-66
2023/06/14 01:50:05;;;;;;;7.53;2.42;;;14.00;88.20;;;;;;5048241;28;20067;-66
2023/06/14 01:52:31;;;;;;;7.10;2.28;;;13.90;88.90;;;;;;5047589;28;20051;-66
2023/06/14 01:54:57;;;;;;;6.43;2.30;;;13.90;88.80;;;;;;5048957;28;20048;-63
2023/06/14 01:57:26;;;;;;;6.32;2.35;;;13.90;89.70;;;;;;5064849;28;20050;-64
2023/06/14 01:59:52;;;;;;;8.05;2.42;;;13.80;90.30;;;;;;5048384;28;20151;-64
2023/06/14 02:02:19;;;;;;;9.02;2.00;;;13.80;90.30;;;;;;5065084;28;20052;-63
2023/06/14 02:04:47;;;;;;;9.07;2.40;;;13.80;90.50;;;;;;5085649;28;20626;-64
2023/06/14 02:07:13;;;;;;;5.78;2.42;;;13.70;90.90;;;;;;5065875;28;20062;-66
2023/06/14 02:09:40;;;;;;;10.93;2.40;;;13.70;91.10;;;;;;5052133;28;20566;-63
2023/06/14 02:12:07;;;;;;;6.55;2.33;;;13.70;91.30;;;;;;5047995;28;20044;-65
2023/06/14 02:14:33;;;;;;;8.32;2.65;;;13.70;91.50;;;;;;5064936;28;20040;-66
2023/06/14 02:17:00;;;;;;;7.60;2.58;;;13.70;91.80;;;;;;5047380;28;20036;-65
2023/06/14 02:19:27;;;;;;;7.90;2.40;;;13.60;91.80;;;;;;5048132;28;20055;-62
2023/06/14 02:21:53;;;;;;;8.18;2.20;;;13.60;92.10;;;;;;5062665;28;20086;-66
2023/06/14 02:24:19;;;;;;;9.13;2.67;;;13.60;92.20;;;;;;5047571;28;20110;-65
2023/06/14 02:26:45;;;;;;;6.97;2.30;;;13.50;92.50;;;;;;5063903;28;20105;-63
2023/06/14 02:29:14;;;;;;;6.88;2.88;;;13.50;92.50;;;;;;5064814;28;20492;-64
2023/06/14 02:31:40;;;;;;;7.10;2.70;;;13.50;92.60;;;;;;5064016;28;20126;-64
2023/06/14 02:34:08;;;;;;;6.90;2.88;;;13.50;92.90;;;;;;5047642;28;20044;-63
2023/06/14 02:36:35;;;;;;;8.95;2.88;;;13.50;93.20;;;;;;5045761;28;20157;-63
2023/06/14 02:39:01;;;;;;;8.80;2.63;;;13.50;93.40;;;;;;5064059;28;20044;-64
2023/06/14 02:41:26;;;;;;;7.47;2.55;;;13.50;93.60;;;;;;5080099;28;20089;-64
2023/06/14 02:43:53;;;;;;;10.82;3.10;;;13.40;93.70;;;;;;5067102;28;20043;-65
2023/06/14 02:46:19;;;;;;;6.93;2.45;;;13.40;94.00;;;;;;5083926;28;20078;-65
2023/06/14 02:48:45;;;;;;;8.32;2.63;;;13.40;94.10;;;;;;5067419;28;20591;-64
2023/06/14 02:51:12;;;;;;;8.82;2.65;;;13.40;94.40;;;;;;5059864;28;20043;-64
2023/06/14 02:53:38;;;;;;;10.75;3.00;;;13.40;94.50;;;;;;5063335;28;20056;-64
2023/06/14 02:56:04;;;;;;;6.50;2.63;;;13.40;94.70;;;;;;5063180;28;20052;-66
2023/06/14 02:58:30;;;;;;;10.40;3.17;;;13.30;94.80;;;;;;5047483;28;20084;-63
2023/06/14 03:00:56;;;;;;;8.32;2.92;;;13.40;94.90;;;;;;5047041;28;20098;-64
2023/06/14 03:03:24;;;;;;;8.05;3.03;;;13.40;95.10;;;;;;5063807;28;20040;-63
2023/06/14 03:05:51;;;;;;;7.63;2.70;;;13.40;95.20;;;;;;5082067;28;20048;-62
2023/06/14 03:08:19;;;;;;;8.30;2.70;;;13.40;95.20;;;;;;5073683;28;20046;-64
2023/06/14 03:10:46;;;;;;;9.20;3.47;;;13.40;95.30;;;;;;5064645;28;20459;-63
2023/06/14 03:13:13;;;;;;;13.27;3.47;;;13.30;95.60;;;;;;5064139;28;20428;-63
2023/06/14 03:15:41;;;;;;;8.98;3.35;;;13.30;95.70;;;;;;5047105;28;20036;-61
2023/06/14 03:18:11;;;;;;;9.63;3.28;;;13.30;96.00;;;;;;5046652;28;20067;-64
2023/06/14 03:20:38;;;;;;;7.28;2.95;;;13.30;96.20;;;;;;5063071;28;20105;-65
2023/06/14 03:23:05;;;;;;;9.30;3.13;;;13.30;96.30;;;;;;5049327;28;20559;-64
2023/06/14 03:25:35;;;;;;;8.27;3.40;;;13.30;96.50;;;;;;5063128;28;20044;-65
2023/06/14 03:28:02;;;;;;;9.48;3.15;;;13.30;96.80;;;;;;5060324;28;20227;-65
2023/06/14 03:30:29;;;;;;;7.45;3.00;;;13.30;97.00;;;;;;5047721;28;20539;-65
2023/06/14 03:33:00;;;;;;;7.45;3.10;;;13.30;97.20;;;;;;5063501;28;20051;-65
2023/06/14 03:35:28;;;;;;;9.63;3.00;;;13.30;97.60;;;;;;5046825;28;20198;-65
2023/06/14 03:37:54;;;;;;;8.55;3.08;;;13.40;97.50;;;;;;5045496;28;20403;-65
2023/06/14 03:40:21;;;;;;;7.68;3.75;;;13.50;97.70;;;;;;5059166;28;20079;-67
2023/06/14 03:42:47;;;;;;;8.95;3.90;;;13.60;97.60;;;;;;5061964;28;20036;-67
2023/06/14 03:45:13;;;;;;;11.50;3.83;;;13.80;97.50;;;;;;5067222;28;20094;-67
2023/06/14 03:47:39;;;;;;;7.30;3.05;;;13.80;97.50;;;;;;5064513;28;20051;-69
2023/06/14 03:50:06;;;;;;;8.25;3.72;;;13.80;97.50;;;;;;5065481;28;20492;-66
2023/06/14 03:52:33;;;;;;;16.20;3.78;;;13.90;97.50;;;;;;5065501;28;20399;-65
2023/06/14 03:55:00;;;;;;;9.48;3.70;;;13.90;97.50;;;;;;5076146;28;20046;-67
2023/06/14 03:57:26;;;;;;;11.88;3.58;;;13.90;97.50;;;;;;5074688;28;20055;-65
2023/06/14 03:59:52;;;;;;;9.82;3.30;;;14.00;97.50;;;;;;5067862;28;20060;-66
2023/06/14 04:02:19;;;;;;;11.52;3.78;;;14.20;97.40;;;;;;5086292;28;20048;-64
2023/06/14 04:04:45;;;;;;;10.45;3.58;;;14.30;97.30;;;;;;5088274;28;20048;-69
2023/06/14 04:07:12;;;;;;;12.40;3.85;;;14.40;97.10;;;;;;5066004;28;20526;-66
2023/06/14 04:09:39;;;;;;;8.60;3.72;;;14.50;96.90;;;;;;5051380;28;20458;-66
2023/06/14 04:12:06;;;;;;;9.43;3.65;;;14.60;96.80;;;;;;5051590;28;20071;-68
2023/06/14 04:14:34;;;;;;;7.32;3.78;;;14.70;96.70;;;;;;5051076;28;20063;-64
2023/06/14 04:17:00;;;;;;;7.65;3.42;;;14.80;96.40;;;;;;5084825;28;20495;-62
2023/06/14 04:19:26;;;;;;;8.88;3.65;;;14.90;96.40;;;;;;5050727;28;20044;-65
2023/06/14 04:21:56;;;;;;;6.50;3.28;;;15.00;96.20;;;;;;5065119;28;20055;-64
2023/06/14 04:24:22;;;;;;;9.10;3.58;;;15.10;96.00;;;;;;5065975;28;20372;-64
2023/06/14 04:26:49;;;;;;;8.13;3.30;;;15.20;95.80;;;;;;5050780;28;20048;-65
2023/06/14 04:29:16;;;;;;;13.93;3.67;;;15.40;95.50;;;;;;5050694;28;20102;-61
2023/06/14 04:31:44;;;;;;;7.43;3.92;;;15.50;95.30;;;;;;5049802;28;20440;-64
2023/06/14 04:34:16;;;;;;;8.18;3.67;;;15.60;95.10;;;;;;5049965;28;20091;-68
2023/06/14 04:36:49;;;;;;;11.30;3.20;;;15.60;94.80;;;;;;5064679;28;20052;-64
2023/06/14 04:39:21;;;;;;;11.93;3.33;;;15.80;94.60;;;;;;5049574;28;20044;-65
2023/06/14 04:41:47;;;;;;;8.13;3.55;;;15.90;94.30;;;;;;5069180;28;20408;-63
2023/06/14 04:44:16;;;;;;;7.05;3.03;;;16.20;93.80;;;;;;5087570;28;20570;-67
2023/06/14 04:46:48;;;;;;;12.00;3.50;;;16.20;93.50;;;;;;5069262;28;20431;-63
2023/06/14 04:49:18;;;;;;;9.25;3.80;;;16.30;93.40;;;;;;5081766;28;20509;-63
2023/06/14 04:51:45;;;;;;;10.63;3.60;;;16.40;93.20;;;;;;5048009;28;20106;-62
2023/06/14 04:54:14;;;;;;;14.10;4.18;;;16.50;92.90;;;;;;5049811;28;20397;-68
2023/06/14 04:56:44;;;;;;;9.73;3.63;;;16.50;92.60;;;;;;5050066;28;20123;-67
2023/06/14 04:59:14;;;;;;;11.07;3.53;;;16.70;92.30;;;;;;5049503;28;20057;-68
2023/06/14 05:01:40;;;;;;;8.80;3.60;;;16.80;92.10;;;;;;5048702;28;20044;-68
2023/06/14 05:04:06;;;;;;;11.07;3.88;;;16.80;92.00;;;;;;5067132;28;20037;-63
2023/06/14 05:06:32;;;;;;;8.05;3.20;;;16.80;92.00;;;;;;5064339;28;20058;-68
2023/06/14 05:08:58;;;;;;;7.95;3.78;;;17.00;91.80;;;;;;5048875;28;20332;-63
2023/06/14 05:11:24;;;;;;;9.05;3.38;;;17.10;91.50;;;;;;5069037;28;20043;-62
2023/06/14 05:13:51;;;;;;;11.35;4.13;;;17.30;91.20;;;;;;5069739;28;20051;-63
2023/06/14 05:16:19;;;;;;;10.85;3.80;;;17.50;91.10;;;;;;5069404;28;20766;-63
2023/06/14 05:18:47;;;;;;;9.65;3.78;;;17.90;90.60;;;;;;5069471;28;20048;-67
2023/06/14 05:21:16;;;;;;;9.45;3.70;;;17.90;89.70;;;;;;5064753;28;20098;-64
2023/06/14 05:23:41;;;;;;;8.57;3.88;;;17.90;89.40;;;;;;5048240;28;20132;-60
2023/06/14 05:26:07;;;;;;;10.43;4.32;;;18.20;88.90;;;;;;5069587;28;20388;-65
2023/06/14 05:28:33;;;;;;;9.15;3.70;;;18.40;88.30;;;;;;5066174;28;20040;-66
2023/06/14 05:30:59;;;;;;;10.63;4.13;;;18.90;87.30;;;;;;5085720;28;20098;-65
2023/06/14 05:33:25;;;;;;;10.13;3.95;;;19.20;85.90;;;;;;5079439;28;20052;-63
2023/06/14 05:35:51;;;;;;;9.48;3.78;;;19.40;85.30;;;;;;5064125;28;20555;-67
2023/06/14 05:38:17;;;;;;;10.18;3.53;;;19.30;84.00;;;;;;5065073;28;20044;-65
2023/06/14 05:40:43;;;;;;;10.25;3.60;;;19.20;83.80;;;;;;5065472;28;20040;-67
2023/06/14 05:43:08;;;;;;;11.23;3.83;;;19.20;83.50;;;;;;5078993;28;20040;-63
2023/06/14 05:45:34;;;;;;;8.65;3.58;;;19.00;83.30;;;;;;5069257;28;20134;-64
2023/06/14 05:48:00;;;;;;;10.43;3.45;;;19.00;83.30;;;;;;5083628;28;20048;-66
2023/06/14 05:50:26;;;;;;;8.18;3.75;;;18.80;83.30;;;;;;5055683;28;20031;-66
2023/06/14 05:52:53;;;;;;;9.52;3.55;;;19.00;84.00;;;;;;5067824;28;20044;-62
2023/06/14 05:55:19;;;;;;;8.73;3.40;;;19.00;83.80;;;;;;5062770;28;20028;-67
2023/06/14 05:57:48;;;;;;;7.10;3.38;;;19.00;83.20;;;;;;5084337;28;20043;-64
2023/06/14 06:00:15;;;;;;;8.75;3.60;;;19.00;82.90;;;;;;5068339;28;20067;-63
2023/06/14 06:02:45;;;;;;;8.88;3.83;;;19.00;83.10;;;;;;5068060;28;20079;-65
2023/06/14 06:05:11;;;;;;;14.82;3.75;;;19.00;82.70;;;;;;5086715;28;20032;-66
2023/06/14 06:07:38;;;;;;;10.27;3.55;;;19.10;82.70;;;;;;5065176;28;20063;-62
2023/06/14 06:10:07;;;;;;;11.55;3.58;;;19.00;82.70;;;;;;5082847;28;20032;-62
2023/06/14 06:12:33;;;;;;;7.78;3.58;;;19.10;82.70;;;;;;5065532;28;20052;-64
2023/06/14 06:15:00;;;;;;;7.88;3.72;;;19.20;82.80;;;;;;5067757;28;20047;-65
2023/06/14 06:17:26;;;;;;;7.63;3.83;;;19.20;83.00;;;;;;5051616;28;20048;-66
2023/06/14 06:19:52;;;;;;;9.40;3.28;;;19.30;82.60;;;;;;5047593;28;20302;-64
2023/06/14 06:22:18;;;;;;;10.10;3.40;;;19.30;82.30;;;;;;5045822;28;20236;-65
2023/06/14 06:24:43;;;;;;;8.35;3.35;;;19.50;82.20;;;;;;5048692;28;20085;-66
2023/06/14 06:27:10;;;;;;;8.18;3.75;;;19.70;82.50;;;;;;5072611;28;20032;-64
2023/06/14 06:29:36;;;;;;;7.10;3.22;;;19.60;81.20;;;;;;5085512;28;20515;-67
2023/06/14 06:32:02;;;;;;;9.30;3.88;;;19.60;81.60;;;;;;5066284;28;20075;-68
2023/06/14 06:34:31;;;;;;;7.78;3.45;;;19.70;82.10;;;;;;5068176;28;20051;-67
2023/06/14 06:36:57;;;;;;;8.35;3.70;;;19.80;81.10;;;;;;5065159;28;20044;-65
2023/06/14 06:39:23;;;;;;;7.43;3.42;;;19.70;80.50;;;;;;5063573;28;20100;-65
2023/06/14 06:41:49;;;;;;;10.18;3.13;;;19.90;80.90;;;;;;5068867;28;20546;-65
2023/06/14 06:44:14;;;;;;;13.98;3.80;;;19.80;80.30;;;;;;5084792;28;20039;-66
2023/06/14 06:46:42;;;;;;;10.75;3.40;;;19.90;80.10;;;;;;5083883;28;20028;-66
2023/06/14 06:49:08;;;;;;;7.65;2.88;;;20.00;79.90;;;;;;5052089;28;20048;-67
2023/06/14 06:51:36;;;;;;;9.75;2.85;;;20.20;79.00;;;;;;5063530;28;20041;-68
2023/06/14 06:54:02;;;;;;;6.00;2.72;;;20.40;79.40;;;;;;5047634;28;20053;-64
2023/06/14 06:56:28;;;;;;;9.75;2.92;;;20.50;78.10;;;;;;5064284;28;20205;-68
2023/06/14 06:58:53;;;;;;;12.05;3.25;;;20.50;77.70;;;;;;5047628;28;20060;-63
2023/06/14 07:01:19;;;;;;;7.75;2.72;;;20.60;77.70;;;;;;5063929;28;20913;-68
2023/06/14 07:03:45;;;;;;;9.30;2.97;;;20.80;77.60;;;;;;5063879;28;20051;-64
2023/06/14 07:06:12;;;;;;;9.75;2.78;;;21.10;77.50;;;;;;5062121;28;20037;-68
2023/06/14 07:08:41;;;;;;;11.00;2.42;;;21.00;76.70;;;;;;5063089;28;20511;-66
2023/06/14 07:11:07;;;;;;;5.70;2.35;;;21.10;76.70;;;;;;5046990;28;20033;-69
2023/06/14 07:13:32;;;;;;;8.90;2.33;;;21.10;75.90;;;;;;5063663;28;20040;-62
2023/06/14 07:16:02;;;;;;;5.60;2.47;;;21.30;76.30;;;;;;5046912;28;20037;-65
2023/06/14 07:18:28;;;;;;;10.20;2.92;;;21.40;76.60;;;;;;5047525;28;20045;-69
2023/06/14 07:20:54;;;;;;;8.25;2.30;;;21.50;75.50;;;;;;5062154;28;20403;-67
2023/06/14 07:23:20;;;;;;;14.00;2.90;;;21.50;74.70;;;;;;5062876;28;20067;-64
2023/06/14 07:25:46;;;;;;;5.70;2.22;;;21.40;74.00;;;;;;5062872;28;20048;-63
2023/06/14 07:28:12;;;;;;;8.05;2.83;;;21.50;74.40;;;;;;5047190;28;20036;-67
2023/06/14 07:30:38;;;;;;;11.52;2.90;;;21.60;73.80;;;;;;5071190;28;20032;-67
2023/06/14 07:33:03;;;;;;;7.90;2.85;;;21.70;73.80;;;;;;5083231;28;20145;-64
2023/06/14 07:35:29;;;;;;;8.52;2.78;;;21.80;74.00;;;;;;5066067;28;20445;-67
2023/06/14 07:37:55;;;;;;;9.40;2.75;;;21.80;73.00;;;;;;5082775;28;20407;-64
2023/06/14 07:40:21;;;;;;;10.02;2.70;;;21.80;73.10;;;;;;5066068;28;20514;-69
2023/06/14 07:42:46;;;;;;;12.43;2.85;;;21.80;72.50;;;;;;5080031;28;20048;-66
2023/06/14 07:45:15;;;;;;;6.90;2.78;;;21.60;72.10;;;;;;5083713;28;20082;-67
2023/06/14 07:47:41;;;;;;;8.00;2.70;;;21.50;71.70;;;;;;5066890;28;20036;-67
2023/06/14 07:50:07;;;;;;;6.53;2.33;;;21.60;73.10;;;;;;5083273;28;20040;-68
2023/06/14 07:52:33;;;;;;;5.13;2.22;;;21.60;72.90;;;;;;5081134;28;20071;-65
2023/06/14 07:54:58;;;;;;;7.70;2.60;;;21.40;71.30;;;;;;5074087;28;20041;-66
2023/06/14 07:57:24;;;;;;;14.40;2.80;;;21.30;72.30;;;;;;5063003;28;20053;-69
2023/06/14 07:59:50;;;;;;;9.00;2.45;;;21.30;71.80;;;;;;5063378;28;20092;-74
2023/06/14 08:02:15;;;;;;;7.40;2.58;;;21.30;71.80;;;;;;5062656;28;20408;-67
2023/06/14 08:04:42;;;;;;;7.75;2.17;;;21.20;72.20;;;;;;5063866;28;20117;-65
2023/06/14 08:07:08;;;;;;;10.18;2.28;;;21.40;72.20;;;;;;5043983;28;20033;-71
2023/06/14 08:09:34;;;;;;;7.25;2.70;;;21.50;72.00;;;;;;5063580;28;20127;-70
2023/06/14 08:12:00;;;;;;;8.57;2.53;;;21.50;71.70;;;;;;5063117;28;20044;-66
2023/06/14 08:14:26;;;;;;;6.90;2.70;;;21.40;70.50;;;;;;5046615;28;20043;-67
2023/06/14 08:16:51;;;;;;;6.80;2.40;;;21.50;71.90;;;;;;5062707;28;20040;-67
2023/06/14 08:19:18;;;;;;;15.05;2.60;;;21.50;71.40;;;;;;5064048;28;20476;-65
2023/06/14 08:21:44;;;;;;;7.32;2.33;;;21.60;71.40;;;;;;5062214;28;20045;-65
2023/06/14 08:24:13;;;;;;;8.27;2.53;;;21.80;71.60;;;;;;5065354;28;20040;-69
2023/06/14 08:26:39;;;;;;;9.40;2.53;;;22.10;70.80;;;;;;5061591;28;20039;-66
2023/06/14 08:29:06;;;;;;;9.38;2.55;;;22.00;70.20;;;;;;5063454;28;20048;-67
2023/06/14 08:31:32;;;;;;;7.43;2.90;;;22.10;70.20;;;;;;5062652;28;20044;-68
2023/06/14 08:33:58;;;;;;;5.75;2.35;;;21.90;69.50;;;;;;5062920;28;20180;-69
2023/06/14 08:36:24;;;;;;;6.53;2.33;;;21.80;69.60;;;;;;5046282;28;20812;-69
2023/06/14 08:38:49;;;;;;;9.00;2.30;;;22.00;69.90;;;;;;5066019;28;20290;-66
2023/06/14 08:41:22;;;;;;;7.97;2.60;;;22.10;70.00;;;;;;5084307;28;20048;-67
2023/06/14 08:43:47;;;;;;;10.15;2.70;;;22.20;69.30;;;;;;5067256;28;20040;-66
2023/06/14 08:46:19;;;;;;;7.43;2.50;;;22.30;70.00;;;;;;5060228;28;20101;-66
2023/06/14 08:48:52;;;;;;;11.23;2.50;;;22.50;69.20;;;;;;5050759;28;20055;-70
2023/06/14 08:51:22;;;;;;;8.80;2.70;;;22.50;69.40;;;;;;5065557;28;20076;-67
2023/06/14 08:53:57;;;;;;;7.15;2.80;;;22.60;69.50;;;;;;5049250;28;20275;-67
2023/06/14 08:56:30;;;;;;;8.98;2.50;;;22.50;68.60;;;;;;5065626;28;20041;-65
2023/06/14 08:59:01;;;;;;;6.38;2.55;;;22.30;68.30;;;;;;5066016;28;20747;-66
2023/06/14 09:01:26;;;;;;;7.70;2.60;;;22.10;68.60;;;;;;5065580;28;20047;-70
2023/06/14 09:03:54;;;;;;;10.30;2.50;;;22.00;69.30;;;;;;5066064;28;20037;-68
2023/06/14 09:06:22;;;;;;;8.63;3.00;;;22.00;68.20;;;;;;5063472;28;20071;-70
2023/06/14 09:08:49;;;;;;;7.75;2.75;;;22.10;68.70;;;;;;5064815;28;20076;-65
2023/06/14 09:11:18;;;;;;;7.20;2.20;;;22.10;68.40;;;;;;5065666;28;20431;-65
2023/06/14 09:13:45;;;;;;;8.60;3.08;;;22.00;69.30;;;;;;5065851;28;20036;-66
2023/06/14 09:16:11;;;;;;;7.78;2.67;;;22.10;69.40;;;;;;5065482;28;20044;-64
2023/06/14 09:18:44;;;;;;;6.22;2.90;;;22.10;69.00;;;;;;5065337;28;20114;-68
2023/06/14 09:21:11;;;;;;;9.35;2.70;;;22.00;69.00;;;;;;5047830;28;20051;-63
2023/06/14 09:23:38;;;;;;;8.13;2.70;;;22.00;69.20;;;;;;5048166;28;20450;-70
2023/06/14 09:26:12;;;;;;;6.30;2.10;;;22.10;68.60;;;;;;5065035;28;20049;-67
2023/06/14 09:28:45;;;;;;;6.63;2.53;;;22.10;68.20;;;;;;5065715;28;20036;-65
2023/06/14 09:31:18;;;;;;;5.72;2.20;;;22.00;68.50;;;;;;5048445;28;20110;-67
2023/06/14 09:33:47;;;;;;;7.93;2.70;;;22.00;68.10;;;;;;5049098;28;20482;-70
2023/06/14 09:36:21;;;;;;;7.60;2.42;;;22.10;68.40;;;;;;5072819;28;20120;-67
2023/06/14 09:39:00;;;;;;;;;;;22.00;67.20;;;;;;5085395;28;20040;-66
2023/06/14 09:41:33;;;;;;;6.53;2.50;;;22.00;67.50;;;;;;5049631;28;20502;-67
2023/06/14 09:44:00;;;;;;;5.88;2.53;;;22.30;68.50;;;;;;5065488;28;20029;-65
2023/06/14 09:46:28;;;;;;;9.43;2.70;;;22.20;67.60;;;;;;5065205;28;20040;-65
2023/06/14 09:48:53;;;;;;;8.63;2.50;;;22.40;67.70;;;;;;5064432;28;20040;-67
2023/06/14 09:51:22;;;;;;;10.32;2.35;;;22.40;67.70;;;;;;5063142;28;20484;-66
2023/06/14 09:53:49;;;;;;;6.07;2.20;;;22.30;67.60;;;;;;5064250;28;20056;-68
2023/06/14 09:56:26;;;;;;;5.03;2.17;;;22.40;67.50;;;;;;5064592;28;20036;-68
2023/06/14 09:58:55;;;;;;;15.05;2.45;;;22.40;67.30;;;;;;5065295;28;20056;-66
2023/06/14 10:01:23;;;;;;;10.32;2.83;;;22.30;67.00;;;;;;5064236;28;20127;-64
2023/06/14 10:03:53;;;;;;;8.57;2.63;;;22.30;67.00;;;;;;5048146;28;20051;-68
2023/06/14 10:06:20;;;;;;;13.70;2.30;;;22.30;66.50;;;;;;5046524;28;20036;-66
2023/06/14 10:08:48;;;;;;;13.50;2.60;;;22.30;66.70;;;;;;5064406;28;20059;-69
2023/06/14 10:11:14;;;;;;;7.45;2.20;;;22.40;67.50;;;;;;5081017;28;20047;-64
2023/06/14 10:13:39;;;;;;;8.82;2.65;;;22.60;67.00;;;;;;5081091;28;20033;-67
2023/06/14 10:16:30;;;;;;;8.57;2.35;;;22.70;66.10;;;;;;5064213;28;20044;-66
2023/06/14 10:19:23;;;;;;;8.82;2.30;;;22.70;65.40;;;;;;5081335;28;20395;-64
2023/06/14 10:22:22;;;;;;;7.55;2.45;;;22.70;65.90;;;;;;5079210;28;20044;-71
2023/06/14 10:24:50;;;;;;;8.80;2.40;;;22.70;66.30;;;;;;5064779;28;20123;-67
2023/06/14 10:27:23;;;;;;;8.55;2.47;;;22.60;66.00;;;;;;5064402;28;20170;-70
2023/06/14 10:29:58;;;;;;;11.25;3.10;;;22.80;66.70;;;;;;5047480;28;20725;-63
2023/06/14 10:32:30;;;;;;;11.20;2.25;;;23.10;67.40;;;;;;5047063;28;20159;-68
2023/06/14 10:34:59;;;;;;;7.57;2.72;;;23.00;66.20;;;;;;5064513;28;20045;-66
2023/06/14 10:37:26;;;;;;;5.32;1.70;;;23.00;66.00;;;;;;5061898;28;20045;-69
2023/06/14 10:39:53;;;;;;;6.85;2.00;;;23.00;64.30;;;;;;5047419;28;20044;-66
2023/06/14 10:42:19;;;;;;;6.82;2.20;;;23.10;65.10;;;;;;5063997;28;20083;-66
2023/06/14 10:44:53;;;;;;;7.07;2.20;;;23.30;65.60;;;;;;5047563;28;20104;-65
2023/06/14 10:47:29;;;;;;;6.07;2.25;;;23.30;66.10;;;;;;5063714;28;20037;-66
2023/06/14 10:49:56;;;;;;;8.75;2.13;;;23.40;65.60;;;;;;5063658;28;20472;-67
2023/06/14 10:52:25;;;;;;;6.93;2.63;;;23.40;65.30;;;;;;5061862;28;20123;-70
2023/06/14 10:55:05;;;;;;;5.97;2.15;;;23.40;64.30;;;;;;5064056;28;20044;-64
2023/06/14 10:57:32;;;;;;;7.75;2.22;;;23.10;65.50;;;;;;5056489;28;20048;-63
2023/06/14 10:59:59;;;;;;;5.25;2.13;;;23.00;65.30;;;;;;5062729;28;20468;-69
2023/06/14 11:02:45;;;;;;;7.57;2.17;;;22.90;65.40;;;;;;5063046;28;20505;-66
2023/06/14 11:05:14;;;;;;;9.60;2.22;;;23.00;65.00;;;;;;5063543;28;20055;-65
2023/06/14 11:08:08;;;;;;;7.13;2.00;;;22.90;64.20;;;;;;5062831;28;20141;-67
2023/06/14 11:10:39;;;;;;;6.20;2.33;;;23.00;64.10;;;;;;5063366;28;20067;-70
2023/06/14 11:13:06;;;;;;;6.82;1.77;;;22.90;63.90;;;;;;5063878;28;20568;-64
2023/06/14 11:15:33;;;;;;;8.48;1.75;;;22.80;64.00;;;;;;5063532;28;20135;-67
2023/06/14 11:18:04;;;;;;;8.25;1.88;;;22.60;64.00;;;;;;5063576;28;20457;-64
2023/06/14 11:20:32;;;;;;;6.15;1.85;;;22.60;63.60;;;;;;5062885;28;20502;-67
2023/06/14 11:22:57;;;;;;;4.65;1.70;;;22.70;64.10;;;;;;5045497;28;20063;-68
2023/06/14 11:25:24;;;;;;;8.98;1.70;;;22.90;64.40;;;;;;5063468;28;20040;-68
2023/06/14 11:27:50;;;;;;;8.82;1.83;;;23.10;64.10;;;;;;5063263;28;20040;-64
2023/06/14 11:30:17;;;;;;;17.85;2.53;;;23.20;63.90;;;;;;5063279;28;20036;-66
2023/06/14 11:32:46;;;;;;;9.15;2.70;;;23.40;64.70;;;;;;5063118;28;20048;-66
2023/06/14 11:35:12;;;;;;;8.85;2.00;;;23.50;62.90;;;;;;5063226;28;20045;-67
2023/06/14 11:37:38;;;;;;;6.80;1.80;;;23.50;63.70;;;;;;5061675;28;20051;-68
2023/06/14 11:40:09;;;;;;;5.03;1.80;;;23.70;65.00;;;;;;5071116;28;20040;-66
2023/06/14 11:42:35;;;;;;;5.80;1.75;;;23.70;62.80;;;;;;5072574;28;20048;-63
2023/06/14 11:45:03;;;;;;;6.60;1.55;;;23.80;63.40;;;;;;5063310;28;20439;-67
2023/06/14 11:47:35;;;;;;;8.32;1.95;;;23.80;63.50;;;;;;5063182;28;20048;-64
2023/06/14 11:50:02;;;;;;;6.47;1.88;;;23.80;63.10;;;;;;5063214;28;20040;-68
2023/06/14 11:52:28;;;;;;;9.13;1.80;;;23.90;62.90;;;;;;5081920;28;20062;-69
2023/06/14 11:54:54;;;;;;;4.72;1.80;;;24.10;62.20;;;;;;5076100;28;20040;-69
2023/06/14 11:57:20;;;;;;;5.18;1.35;;;24.40;62.30;;;;;;5070764;28;20065;-66
2023/06/14 11:59:46;;;;;;;5.18;2.13;;;24.20;61.30;;;;;;5066154;28;20063;-67
2023/06/14 12:02:16;;;;;;;5.07;1.80;;;24.10;60.80;;;;;;5065982;28;20048;-67
2023/06/14 12:04:43;;;;;;;7.85;1.50;;;24.00;61.10;;;;;;5083468;28;20036;-66
2023/06/14 12:07:14;;;;;;;5.18;1.70;;;24.00;62.20;;;;;;5072767;28;20037;-72
2023/06/14 12:09:40;;;;;;;8.80;1.90;;;24.20;62.30;;;;;;5063350;28;20067;-70
2023/06/14 12:12:06;;;;;;;9.35;1.92;;;24.40;61.90;;;;;;5066473;28;20032;-68
2023/06/14 12:14:32;;;;;;;5.05;1.52;;;24.40;62.10;;;;;;5067416;28;20533;-67
2023/06/14 12:17:07;;;;;;;8.32;1.83;;;24.40;61.20;;;;;;5066484;28;20037;-67
2023/06/14 12:19:41;;;;;;;8.10;1.88;;;24.50;61.90;;;;;;5050132;28;20546;-66
2023/06/14 12:22:08;;;;;;;4.38;1.73;;;24.60;61.60;;;;;;5064770;28;20098;-68
2023/06/14 12:24:34;;;;;;;6.00;1.73;;;24.50;61.50;;;;;;5067312;28;20044;-67
2023/06/14 12:27:02;;;;;;;4.13;1.73;;;24.30;61.50;;;;;;5071848;28;20081;-70
2023/06/14 12:29:28;;;;;;;16.55;1.83;;;24.30;61.60;;;;;;5087119;28;20087;-67
2023/06/14 12:31:56;;;;;;;6.15;1.73;;;24.30;61.40;;;;;;5088263;28;20096;-68
2023/06/14 12:34:26;;;;;;;6.88;1.88;;;24.20;61.90;;;;;;5086992;28;20065;-67
2023/06/14 12:36:53;;;;;;;6.95;2.05;;;24.10;61.90;;;;;;5078488;28;20044;-69
2023/06/14 12:39:18;;;;;;;5.05;1.90;;;24.30;62.40;;;;;;5065159;28;20083;-65
2023/06/14 12:41:44;;;;;;;7.63;1.80;;;24.30;61.00;;;;;;5078743;28;20381;-67
2023/06/14 12:44:11;;;;;;;4.53;1.50;;;24.50;61.90;;;;;;5069021;28;20032;-69
2023/06/14 12:46:39;;;;;;;6.53;2.22;;;24.60;61.80;;;;;;5065809;28;20069;-66
2023/06/14 12:49:05;;;;;;;7.03;1.90;;;24.40;60.60;;;;;;5085176;28;20032;-67